createdAt,value
2022-10-07T04:39:01.503Z,0.1
2022-10-07T04:41:01.063Z,0.2
2022-10-07T04:42:01.171Z,0.3
2022-10-07T04:44:01.291Z,0.4
2022-10-07T04:45:01.615Z,0.5
2022-10-07T04:46:01.057Z,0.6
2022-10-07T04:47:01.202Z,0.7
2022-10-07T04:48:01.059Z,0.9
2022-10-07T04:49:01.400Z,1.1
2022-10-07T04:50:01.275Z,1.3
2022-10-07T04:51:01.060Z,1.6
2022-10-07T04:52:01.075Z,1.9
2022-10-07T04:53:01.056Z,2.3
2022-10-07T04:54:01.399Z,2.7
2022-10-07T04:55:01.097Z,3.1
2022-10-07T04:56:01.072Z,3.7
2022-10-07T04:57:01.060Z,4.4
2022-10-07T04:58:01.058Z,5.1
2022-10-07T04:59:01.552Z,6.2
2022-10-07T05:01:01.087Z,9.1
2022-10-07T05:02:01.117Z,10.8
2022-10-07T05:03:01.061Z,12.5
2022-10-07T05:04:01.270Z,15.3
2022-10-07T05:06:04.661Z,22.5
2022-10-07T05:07:01.075Z,26.9
2022-10-07T05:08:02.159Z,31.3
2022-10-07T05:09:01.273Z,38.3
2022-10-07T05:10:01.072Z,45.2
2022-10-07T05:11:01.355Z,55.9
2022-10-07T05:12:01.059Z,66.5
2022-10-07T05:13:01.058Z,77.2
2022-10-07T05:14:01.306Z,93.0
2022-10-07T05:15:01.590Z,108.8
2022-10-07T05:16:01.437Z,131.6
2022-10-07T05:17:01.068Z,154.4
2022-10-07T05:18:01.067Z,177.2
2022-10-07T05:19:01.265Z,209.3
2022-10-07T05:20:01.794Z,241.3
2022-10-07T05:21:01.074Z,285.3
2022-10-07T05:22:01.066Z,329.3
2022-10-07T05:23:01.062Z,373.3
2022-10-07T05:24:01.535Z,432.0
2022-10-07T05:25:01.080Z,490.7
2022-10-07T05:26:01.065Z,566.7
2022-10-07T05:27:01.345Z,642.8
2022-10-07T05:28:01.089Z,718.9
2022-10-07T05:29:02.296Z,815.2
2022-10-07T05:31:01.072Z,1030.5
2022-10-07T05:32:04.955Z,1149.5
2022-10-07T05:33:01.069Z,1268.5
2022-10-07T05:34:01.319Z,1412.0
2022-10-07T05:35:01.084Z,1555.5
2022-10-07T05:36:01.066Z,1725.1
2022-10-07T05:37:01.062Z,1894.8
2022-10-07T05:38:01.063Z,2064.5
2022-10-07T05:39:01.277Z,2261.2
2022-10-07T05:40:01.075Z,2457.9
2022-10-07T05:41:01.080Z,2682.5
2022-10-07T05:42:01.067Z,2907.0
2022-10-07T05:43:01.424Z,3131.5
2022-10-07T05:44:01.538Z,3383.3
2022-10-07T05:46:01.506Z,3914.0
2022-10-07T05:47:01.071Z,4192.9
2022-10-07T05:48:01.066Z,4471.7
2022-10-07T05:49:01.276Z,4774.5
2022-10-07T05:50:01.086Z,5077.3
2022-10-07T05:51:01.103Z,5401.3
2022-10-07T05:52:01.349Z,5725.2
2022-10-07T05:53:01.067Z,6049.1
2022-10-07T05:54:01.288Z,6392.1
2022-10-07T05:55:01.079Z,6735.1
2022-10-07T05:56:01.329Z,7097.9
2022-10-07T05:57:01.068Z,7460.7
2022-10-07T05:58:01.070Z,7823.5
2022-10-07T05:59:01.355Z,8203.9
2022-10-07T06:01:05.467Z,8976.6
2022-10-07T06:02:01.205Z,9369.0
2022-10-07T06:03:01.151Z,9761.4
2022-10-07T06:04:01.535Z,10160.1
2022-10-07T06:05:01.090Z,10558.9
2022-10-07T06:06:01.083Z,10962.0
2022-10-07T06:07:01.070Z,11365.1
2022-10-07T06:08:01.068Z,11768.3
2022-10-07T06:09:01.476Z,12174.3
2022-10-07T06:10:01.076Z,12580.3
2022-10-07T06:11:01.074Z,12981.3
2022-10-07T06:12:01.075Z,13382.4
2022-10-07T06:13:01.071Z,13783.5
2022-10-07T06:14:02.554Z,14180.3
2022-10-07T06:16:01.142Z,14973.7
2022-10-07T06:17:01.124Z,15370.4
2022-10-07T06:18:01.077Z,15767.1
2022-10-07T06:19:01.294Z,16170.6
2022-10-07T06:20:01.128Z,16574.1
2022-10-07T06:21:01.086Z,16980.1
2022-10-07T06:22:01.105Z,17386.1
2022-10-07T06:23:01.151Z,17792.1
2022-10-07T06:24:01.413Z,18195.7
2022-10-07T06:25:01.211Z,18599.2
2022-10-07T06:26:01.153Z,18998.5
2022-10-07T06:27:01.155Z,19397.9
2022-10-07T06:28:01.148Z,19797.2
2022-10-07T06:29:01.379Z,20192.1
2022-10-07T06:31:01.201Z,20979.6
2022-10-07T06:32:01.085Z,21372.3
2022-10-07T06:33:01.197Z,21764.9
2022-10-07T06:34:01.319Z,22152.3
2022-10-07T06:35:01.175Z,22539.6
2022-10-07T06:36:04.401Z,22919.6
2022-10-07T06:37:01.081Z,23299.6
2022-10-07T06:38:01.084Z,23679.6
2022-10-07T06:39:01.363Z,24060.5
2022-10-07T06:41:01.343Z,24853.2
2022-10-07T06:42:01.091Z,25265.1
2022-10-07T06:43:01.087Z,25676.9
2022-10-07T06:44:01.363Z,26130.1
2022-10-07T06:46:01.140Z,27412.5
2022-10-07T06:47:01.109Z,28241.7
2022-10-07T06:48:01.199Z,29070.9
2022-10-07T06:49:01.361Z,29985.5
2022-10-07T06:50:01.128Z,30900.0
2022-10-07T06:51:01.099Z,31935.3
2022-10-07T06:52:01.094Z,32970.7
2022-10-07T06:53:01.087Z,34006.0
2022-10-07T06:54:01.301Z,35133.1
2022-10-07T06:56:01.109Z,37441.3
2022-10-07T06:57:01.098Z,38622.4
2022-10-07T06:58:01.570Z,39803.5
2022-10-07T06:59:01.305Z,41006.4
2022-10-07T07:00:01.981Z,42209.3
2022-10-07T07:01:01.155Z,43025.3
2022-10-07T07:02:01.175Z,43841.3
2022-10-07T07:03:01.116Z,44657.3
2022-10-07T07:04:01.306Z,45515.7
2022-10-07T07:06:01.360Z,47270.8
2022-10-07T07:07:01.108Z,48167.5
2022-10-07T07:08:01.212Z,49064.3
2022-10-07T07:09:01.312Z,49992.2
2022-10-07T07:11:01.103Z,51936.9
2022-10-07T07:12:01.097Z,52953.7
2022-10-07T07:14:01.300Z,55104.5
2022-10-07T07:15:01.615Z,56238.5
2022-10-07T07:16:01.102Z,57358.1
2022-10-07T07:17:01.136Z,58477.6
2022-10-07T07:18:01.123Z,59597.1
2022-10-07T07:19:01.392Z,60522.3
2022-10-07T07:20:01.717Z,61447.4
2022-10-07T07:21:01.099Z,62152.9
2022-10-07T07:22:01.100Z,62858.3
2022-10-07T07:23:01.093Z,63563.8
2022-10-07T07:24:01.302Z,64081.6
2022-10-07T07:25:01.867Z,64599.4
2022-10-07T07:26:01.108Z,64883.4
2022-10-07T07:27:01.099Z,65167.4
2022-10-07T07:28:01.158Z,65451.4
2022-10-07T07:29:01.312Z,65493.2
2022-10-07T07:45:01.934Z,65535.0
2022-10-07T08:00:03.413Z,65535.0
2022-10-07T08:46:01.148Z,65535.0
2022-10-07T09:15:01.931Z,65535.0
2022-10-07T09:30:01.848Z,65535.0
2022-10-07T10:00:03.262Z,65535.0
2022-10-07T10:30:02.535Z,65535.0
2022-10-07T10:45:02.366Z,65535.0
2022-10-07T11:01:01.132Z,65535.0
2022-10-07T11:30:01.933Z,65535.0
2022-10-07T12:01:01.127Z,65535.0
2022-10-07T12:15:01.885Z,65535.0
2022-10-07T12:30:02.171Z,65535.0
2022-10-07T12:45:02.268Z,65535.0
2022-10-07T13:30:07.656Z,65535.0
2022-10-07T13:46:01.187Z,65535.0
2022-10-07T13:54:01.884Z,65154.3
2022-10-07T13:55:01.155Z,64773.7
2022-10-07T13:56:04.291Z,64393.0
2022-10-07T13:59:01.337Z,64083.9
2022-10-07T14:00:01.980Z,63774.7
2022-10-07T14:01:01.159Z,63465.6
2022-10-07T14:02:01.388Z,62069.0
2022-10-07T14:03:01.163Z,60672.4
2022-10-07T14:04:16.122Z,59928.1
2022-10-07T14:05:02.259Z,59183.9
2022-10-07T14:06:01.084Z,58439.6
2022-10-07T14:07:01.102Z,57008.3
2022-10-07T14:08:01.646Z,55576.9
2022-10-07T14:09:01.107Z,53836.0
2022-10-07T14:10:01.388Z,52095.1
2022-10-07T14:11:01.105Z,50354.1
2022-10-07T14:12:01.100Z,48941.5
2022-10-07T14:13:01.198Z,47528.8
2022-10-07T14:14:04.468Z,45940.7
2022-10-07T14:16:01.138Z,42764.6
2022-10-07T14:17:01.174Z,42828.7
2022-10-07T14:18:01.203Z,42892.7
2022-10-07T14:19:01.097Z,43637.0
2022-10-07T14:20:01.385Z,44381.3
2022-10-07T14:21:01.129Z,45125.5
2022-10-07T14:22:01.106Z,46556.9
2022-10-07T14:23:01.105Z,47988.2
2022-10-07T14:24:01.359Z,50109.8
2022-10-07T14:26:01.180Z,54353.0
2022-10-07T14:27:01.103Z,55765.7
2022-10-07T14:28:01.550Z,57178.3
2022-10-07T14:29:02.128Z,59075.5
2022-10-07T14:30:02.287Z,60972.7
2022-10-07T14:31:01.241Z,62869.9
2022-10-07T14:32:01.121Z,64202.5
2022-10-07T14:33:01.114Z,65535.0
2022-10-07T14:47:01.375Z,65133.9
2022-10-07T14:48:01.104Z,64732.9
2022-10-07T14:49:01.101Z,64161.4
2022-10-07T14:51:01.156Z,63018.5
2022-10-07T14:52:01.166Z,62439.3
2022-10-07T14:53:01.107Z,61860.1
2022-10-07T14:54:01.118Z,61372.0
2022-10-07T14:55:01.317Z,60883.9
2022-10-07T14:56:01.262Z,60395.9
2022-10-07T14:57:01.636Z,60311.7
2022-10-07T14:58:01.153Z,60227.5
2022-10-07T14:59:01.111Z,59909.7
2022-10-07T15:01:01.273Z,59274.3
2022-10-07T15:02:01.109Z,59161.4
2022-10-07T15:03:01.104Z,59048.5
2022-10-07T15:04:01.256Z,59036.1
2022-10-07T15:05:01.889Z,59023.7
2022-10-07T15:06:01.149Z,59011.3
2022-10-07T15:07:01.162Z,59590.5
2022-10-07T15:08:01.111Z,60169.7
2022-10-07T15:09:01.252Z,60530.9
2022-10-07T15:11:01.138Z,61253.3
2022-10-07T15:12:01.107Z,60615.7
2022-10-07T15:13:01.396Z,59978.1
2022-10-07T15:14:01.110Z,59709.3
2022-10-07T15:16:01.174Z,59171.7
2022-10-07T15:17:01.193Z,58543.4
2022-10-07T15:18:01.118Z,57915.1
2022-10-07T15:19:01.105Z,57111.9
2022-10-07T15:20:01.598Z,56308.8
2022-10-07T15:21:01.288Z,55505.7
2022-10-07T15:22:01.214Z,54132.5
2022-10-07T15:23:01.386Z,52759.3
2022-10-07T15:24:01.113Z,51157.7
2022-10-07T15:26:06.136Z,47954.7
2022-10-07T15:27:01.120Z,46998.9
2022-10-07T15:28:01.195Z,46043.2
2022-10-07T15:29:01.238Z,44855.4
2022-10-07T15:31:01.319Z,43667.6
2022-10-07T15:32:01.126Z,42519.7
2022-10-07T15:33:02.152Z,41927.6
2022-10-07T15:34:01.101Z,41309.3
2022-10-07T15:36:01.318Z,40562.1
2022-10-07T15:37:01.102Z,40039.1
2022-10-07T15:38:01.104Z,39502.3
2022-10-07T15:39:01.097Z,38792.9
2022-10-07T15:40:01.312Z,38438.7
2022-10-07T15:41:01.360Z,38084.5
2022-10-07T15:42:01.100Z,37594.1
2022-10-07T15:43:01.098Z,37052.9
2022-10-07T15:44:06.104Z,36377.1
2022-10-07T15:46:01.581Z,35218.9
2022-10-07T15:47:01.170Z,34236.9
2022-10-07T15:48:01.176Z,33254.8
2022-10-07T15:49:01.124Z,32227.3
2022-10-07T15:50:01.309Z,31199.7
2022-10-07T15:51:01.129Z,30172.2
2022-10-07T15:52:01.102Z,29227.1
2022-10-07T15:53:01.166Z,28282.1
2022-10-07T15:54:01.119Z,27649.8
2022-10-07T15:56:01.146Z,26385.3
2022-10-07T15:57:01.235Z,25607.4
2022-10-07T15:58:01.125Z,24829.5
2022-10-07T15:59:01.098Z,24132.1
2022-10-07T16:01:01.136Z,22737.1
2022-10-07T16:02:01.212Z,22351.7
2022-10-07T16:03:01.192Z,21966.3
2022-10-07T16:04:01.133Z,21617.3
2022-10-07T16:05:01.390Z,21268.3
2022-10-07T16:06:01.098Z,20919.3
2022-10-07T16:07:06.144Z,20551.5
2022-10-07T16:08:01.236Z,20183.7
2022-10-07T16:09:01.128Z,19600.4
2022-10-07T16:10:01.338Z,19017.1
2022-10-07T16:11:01.147Z,18433.7
2022-10-07T16:12:01.110Z,18047.0
2022-10-07T16:13:01.108Z,17660.3
2022-10-07T16:14:01.112Z,17238.5
2022-10-07T16:16:01.221Z,16395.1
2022-10-07T16:17:01.139Z,15940.7
2022-10-07T16:18:01.107Z,15486.3
2022-10-07T16:19:01.113Z,14998.3
2022-10-07T16:20:01.596Z,14510.3
2022-10-07T16:21:01.259Z,14022.3
2022-10-07T16:22:01.112Z,13557.5
2022-10-07T16:23:01.106Z,13092.7
2022-10-07T16:24:01.113Z,12631.9
2022-10-07T16:26:01.140Z,11710.3
2022-10-07T16:27:01.116Z,11260.0
2022-10-07T16:28:01.207Z,10809.7
2022-10-07T16:29:02.165Z,10371.9
2022-10-07T16:31:06.156Z,9496.1
2022-10-07T16:32:01.107Z,9065.0
2022-10-07T16:33:01.107Z,8633.9
2022-10-07T16:34:01.110Z,8198.3
2022-10-07T16:36:01.132Z,7327.1
2022-10-07T16:37:01.132Z,6901.9
2022-10-07T16:38:01.148Z,6476.7
2022-10-07T16:39:01.111Z,6073.6
2022-10-07T16:41:01.187Z,5267.5
2022-10-07T16:42:01.355Z,4899.5
2022-10-07T16:43:01.172Z,4531.5
2022-10-07T16:44:01.177Z,4215.3
2022-10-07T16:46:01.232Z,3583.1
2022-10-07T16:47:01.397Z,3315.3
2022-10-07T16:48:01.175Z,3047.6
2022-10-07T16:49:01.111Z,2827.1
2022-10-07T16:51:01.161Z,2386.2
2022-10-07T16:52:01.118Z,2195.2
2022-10-07T16:53:01.131Z,2004.2
2022-10-07T16:54:01.138Z,1845.2
2022-10-07T16:56:01.153Z,1527.2
2022-10-07T16:57:01.107Z,1394.5
2022-10-07T16:59:01.098Z,1252.2
2022-10-07T17:01:01.148Z,1017.5
2022-10-07T17:02:01.135Z,892.1
2022-10-07T17:03:01.096Z,795.3
2022-10-07T17:04:01.207Z,692.4
2022-10-07T17:06:01.133Z,538.8
2022-10-07T17:07:01.098Z,458.1
2022-10-07T17:08:01.101Z,400.0
2022-10-07T17:09:01.121Z,339.3
2022-10-07T17:10:01.280Z,295.9
2022-10-07T17:11:01.150Z,252.4
2022-10-07T17:12:01.108Z,207.3
2022-10-07T17:13:01.191Z,175.3
2022-10-07T17:14:01.096Z,152.0
2022-10-07T17:16:01.410Z,105.3
2022-10-07T17:17:01.099Z,89.3
2022-10-07T17:18:01.110Z,73.2
2022-10-07T17:19:01.139Z,62.9
2022-10-07T17:21:01.143Z,42.4
2022-10-07T17:22:01.119Z,35.8
2022-10-07T17:23:01.358Z,29.2
2022-10-07T17:24:01.109Z,25.0
2022-10-07T17:25:16.149Z,20.8
2022-10-07T17:26:01.804Z,16.6
2022-10-07T17:27:01.324Z,14.0
2022-10-07T17:28:01.242Z,11.4
2022-10-07T17:29:01.110Z,9.8
2022-10-07T17:31:01.670Z,6.6
2022-10-07T17:32:01.111Z,5.8
2022-10-07T17:33:06.103Z,5.0
2022-10-07T17:34:01.111Z,4.3
2022-10-07T17:35:01.125Z,3.7
2022-10-07T17:36:02.698Z,3.0
2022-10-07T17:37:01.113Z,2.6
2022-10-07T17:38:01.366Z,2.2
2022-10-07T17:39:01.112Z,2.0
2022-10-07T17:40:01.112Z,1.8
2022-10-07T17:41:01.474Z,1.6
2022-10-07T17:42:01.172Z,1.4
2022-10-07T17:43:01.110Z,1.2
2022-10-07T17:44:01.366Z,1.1
2022-10-07T17:46:01.315Z,0.8
2022-10-07T17:47:01.228Z,0.7
2022-10-07T17:48:01.346Z,0.5
2022-10-07T17:50:01.125Z,0.4
2022-10-07T17:51:01.315Z,0.3
2022-10-07T17:53:01.116Z,0.2
2022-10-07T17:54:01.123Z,0.1
2022-10-07T20:50:01.406Z,0.1
2022-10-07T20:52:01.847Z,0.2
2022-10-07T20:53:01.112Z,0.3
2022-10-07T21:00:02.871Z,0.3
2022-10-07T21:10:01.255Z,0.2
2022-10-07T21:15:01.383Z,0.3
2022-10-07T21:20:01.306Z,0.4
2022-10-07T21:21:01.109Z,0.5
2022-10-07T21:30:05.867Z,0.4
2022-10-07T21:31:01.190Z,0.3
2022-10-07T21:36:01.315Z,0.2
2022-10-07T21:37:01.153Z,0.1
2022-10-07T22:57:01.467Z,0.1
2022-10-07T22:59:01.104Z,0.2
2022-10-07T23:00:01.119Z,0.2
2022-10-07T23:15:01.487Z,0.3
2022-10-07T23:17:01.113Z,0.4
2022-10-07T23:18:01.369Z,0.5
2022-10-07T23:20:01.322Z,0.6
2022-10-07T23:21:01.113Z,0.7
2022-10-07T23:28:02.484Z,0.6
2022-10-07T23:29:01.131Z,0.5
2022-10-07T23:30:01.107Z,0.5
2022-10-07T23:31:01.401Z,0.4
2022-10-07T23:32:01.108Z,0.3
2022-10-07T23:34:01.341Z,0.2
2022-10-07T23:35:01.109Z,0.1
